sensor_id;sensor_type;location;lat;lon;timestamp;temperature;humidity
12887;DHT22;6511;49.746;6.094;2023-01-13T00:02:19;8.90;99.90
12887;DHT22;6511;49.746;6.094;2023-01-13T00:04:45;8.80;99.90
12887;DHT22;6511;49.746;6.094;2023-01-13T00:07:11;8.90;99.90
12887;DHT22;6511;49.746;6.094;2023-01-13T00:09:36;8.90;99.90
12887;DHT22;6511;49.746;6.094;2023-01-13T00:12:03;8.90;99.90
12887;DHT22;6511;49.746;6.094;2023-01-13T00:14:31;8.80;99.90
12887;DHT22;6511;49.746;6.094;2023-01-13T00:16:57;8.90;99.90
12887;DHT22;6511;49.746;6.094;2023-01-13T00:19:23;8.90;99.90
12887;DHT22;6511;49.746;6.094;2023-01-13T00:21:48;8.90;99.90
12887;DHT22;6511;49.746;6.094;2023-01-13T00:24:14;8.90;99.90
12887;DHT22;6511;49.746;6.094;2023-01-13T00:26:39;8.90;99.90
12887;DHT22;6511;49.746;6.094;2023-01-13T00:29:05;8.90;99.90
12887;DHT22;6511;49.746;6.094;2023-01-13T00:31:31;8.90;99.90
12887;DHT22;6511;49.746;6.094;2023-01-13T00:33:58;8.90;99.90
12887;DHT22;6511;49.746;6.094;2023-01-13T00:36:25;8.90;99.90
12887;DHT22;6511;49.746;6.094;2023-01-13T00:38:50;8.90;99.90
12887;DHT22;6511;49.746;6.094;2023-01-13T00:41:18;8.90;99.90
12887;DHT22;6511;49.746;6.094;2023-01-13T00:43:44;8.90;99.90
12887;DHT22;6511;49.746;6.094;2023-01-13T00:46:12;9.00;99.90
12887;DHT22;6511;49.746;6.094;2023-01-13T00:48:39;9.00;99.90
12887;DHT22;6511;49.746;6.094;2023-01-13T00:51:07;9.00;99.90
12887;DHT22;6511;49.746;6.094;2023-01-13T00:53:40;9.00;99.90
12887;DHT22;6511;49.746;6.094;2023-01-13T00:56:11;9.00;99.90
12887;DHT22;6511;49.746;6.094;2023-01-13T00:58:39;9.00;99.90
12887;DHT22;6511;49.746;6.094;2023-01-13T01:01:07;9.00;99.90
12887;DHT22;6511;49.746;6.094;2023-01-13T01:03:34;9.00;99.90
12887;DHT22;6511;49.746;6.094;2023-01-13T01:06:14;9.00;99.90
12887;DHT22;6511;49.746;6.094;2023-01-13T01:08:41;9.00;99.90
12887;DHT22;6511;49.746;6.094;2023-01-13T01:11:09;9.00;99.90
12887;DHT22;6511;49.746;6.094;2023-01-13T01:13:35;9.00;99.90
12887;DHT22;6511;49.746;6.094;2023-01-13T01:16:06;9.00;99.90
12887;DHT22;6511;49.746;6.094;2023-01-13T01:18:34;9.00;99.90
12887;DHT22;6511;49.746;6.094;2023-01-13T01:21:00;9.00;99.90
12887;DHT22;6511;49.746;6.094;2023-01-13T01:23:27;9.00;99.90
12887;DHT22;6511;49.746;6.094;2023-01-13T01:25:53;9.00;99.90
12887;DHT22;6511;49.746;6.094;2023-01-13T01:28:19;9.00;99.90
12887;DHT22;6511;49.746;6.094;2023-01-13T01:30:45;9.00;99.90
12887;DHT22;6511;49.746;6.094;2023-01-13T01:33:10;9.00;99.90
12887;DHT22;6511;49.746;6.094;2023-01-13T01:35:39;9.00;99.90
12887;DHT22;6511;49.746;6.094;2023-01-13T01:38:05;9.00;99.90
12887;DHT22;6511;49.746;6.094;2023-01-13T01:40:31;9.10;99.90
12887;DHT22;6511;49.746;6.094;2023-01-13T01:42:57;9.10;99.90
12887;DHT22;6511;49.746;6.094;2023-01-13T01:45:41;9.10;99.90
12887;DHT22;6511;49.746;6.094;2023-01-13T01:48:06;9.10;99.90
12887;DHT22;6511;49.746;6.094;2023-01-13T01:50:33;9.10;99.90
12887;DHT22;6511;49.746;6.094;2023-01-13T01:53:06;9.10;99.90
12887;DHT22;6511;49.746;6.094;2023-01-13T01:55:35;9.10;99.90
12887;DHT22;6511;49.746;6.094;2023-01-13T02:00:30;9.10;99.90
12887;DHT22;6511;49.746;6.094;2023-01-13T02:02:58;9.10;99.90
12887;DHT22;6511;49.746;6.094;2023-01-13T02:05:24;9.10;99.90
12887;DHT22;6511;49.746;6.094;2023-01-13T02:07:52;9.10;99.90
12887;DHT22;6511;49.746;6.094;2023-01-13T02:10:21;9.10;99.90
12887;DHT22;6511;49.746;6.094;2023-01-13T02:12:48;9.10;99.90
12887;DHT22;6511;49.746;6.094;2023-01-13T02:18:30;9.10;99.90
12887;DHT22;6511;49.746;6.094;2023-01-13T02:23:43;9.10;99.90
12887;DHT22;6511;49.746;6.094;2023-01-13T02:38:04;9.00;99.90
12887;DHT22;6511;49.746;6.094;2023-01-13T02:40:39;9.00;99.90
12887;DHT22;6511;49.746;6.094;2023-01-13T02:46:04;9.00;99.90
12887;DHT22;6511;49.746;6.094;2023-01-13T02:48:32;9.00;99.90
12887;DHT22;6511;49.746;6.094;2023-01-13T02:51:07;8.90;99.90
12887;DHT22;6511;49.746;6.094;2023-01-13T02:53:55;8.90;99.90
12887;DHT22;6511;49.746;6.094;2023-01-13T02:56:23;8.30;99.90
12887;DHT22;6511;49.746;6.094;2023-01-13T02:58:50;8.10;99.90
12887;DHT22;6511;49.746;6.094;2023-01-13T03:01:17;8.10;99.90
12887;DHT22;6511;49.746;6.094;2023-01-13T03:03:43;7.90;99.90
12887;DHT22;6511;49.746;6.094;2023-01-13T03:08:49;7.80;99.90
12887;DHT22;6511;49.746;6.094;2023-01-13T03:11:19;7.80;99.90
12887;DHT22;6511;49.746;6.094;2023-01-13T03:24:46;7.70;99.90
12887;DHT22;6511;49.746;6.094;2023-01-13T03:27:25;7.60;99.90
12887;DHT22;6511;49.746;6.094;2023-01-13T03:30:02;7.60;99.90
12887;DHT22;6511;49.746;6.094;2023-01-13T03:32:47;7.50;99.90
12887;DHT22;6511;49.746;6.094;2023-01-13T03:35:24;7.50;99.90
12887;DHT22;6511;49.746;6.094;2023-01-13T03:38:03;7.40;99.90
12887;DHT22;6511;49.746;6.094;2023-01-13T03:40:37;7.40;99.90
12887;DHT22;6511;49.746;6.094;2023-01-13T03:43:11;7.40;99.90
12887;DHT22;6511;49.746;6.094;2023-01-13T03:46:00;7.40;99.90
12887;DHT22;6511;49.746;6.094;2023-01-13T03:48:28;7.40;99.90
12887;DHT22;6511;49.746;6.094;2023-01-13T03:51:02;7.40;99.90
12887;DHT22;6511;49.746;6.094;2023-01-13T03:53:48;7.40;99.90
12887;DHT22;6511;49.746;6.094;2023-01-13T03:57:00;7.40;99.90
12887;DHT22;6511;49.746;6.094;2023-01-13T03:59:09;7.40;99.90
12887;DHT22;6511;49.746;6.094;2023-01-13T04:01:52;7.50;99.90
12887;DHT22;6511;49.746;6.094;2023-01-13T04:04:23;7.50;99.90
12887;DHT22;6511;49.746;6.094;2023-01-13T04:07:14;7.40;99.90
12887;DHT22;6511;49.746;6.094;2023-01-13T04:09:57;7.50;99.90
12887;DHT22;6511;49.746;6.094;2023-01-13T04:12:29;7.50;99.90
12887;DHT22;6511;49.746;6.094;2023-01-13T04:15:16;7.50;99.90
12887;DHT22;6511;49.746;6.094;2023-01-13T04:17:43;7.40;99.90
12887;DHT22;6511;49.746;6.094;2023-01-13T04:20:09;7.40;99.90
12887;DHT22;6511;49.746;6.094;2023-01-13T04:22:35;7.40;99.90
12887;DHT22;6511;49.746;6.094;2023-01-13T04:25:00;7.40;99.90
12887;DHT22;6511;49.746;6.094;2023-01-13T04:27:26;7.40;99.90
12887;DHT22;6511;49.746;6.094;2023-01-13T04:29:51;7.40;99.90
12887;DHT22;6511;49.746;6.094;2023-01-13T04:32:17;7.30;99.90
12887;DHT22;6511;49.746;6.094;2023-01-13T04:34:43;7.30;99.90
12887;DHT22;6511;49.746;6.094;2023-01-13T04:37:09;7.30;99.90
12887;DHT22;6511;49.746;6.094;2023-01-13T04:39:34;7.30;99.90
12887;DHT22;6511;49.746;6.094;2023-01-13T04:42:00;7.20;99.90
12887;DHT22;6511;49.746;6.094;2023-01-13T04:44:27;7.20;99.90
12887;DHT22;6511;49.746;6.094;2023-01-13T04:46:53;7.20;99.90
12887;DHT22;6511;49.746;6.094;2023-01-13T04:49:19;7.10;99.90
12887;DHT22;6511;49.746;6.094;2023-01-13T04:51:44;7.10;99.90
12887;DHT22;6511;49.746;6.094;2023-01-13T04:54:10;7.10;99.90
12887;DHT22;6511;49.746;6.094;2023-01-13T04:56:36;7.10;99.90
12887;DHT22;6511;49.746;6.094;2023-01-13T04:59:01;7.00;99.90
12887;DHT22;6511;49.746;6.094;2023-01-13T05:01:27;7.00;99.90
12887;DHT22;6511;49.746;6.094;2023-01-13T05:03:53;7.00;99.90
12887;DHT22;6511;49.746;6.094;2023-01-13T05:06:18;6.90;99.90
12887;DHT22;6511;49.746;6.094;2023-01-13T05:08:44;6.80;99.90
12887;DHT22;6511;49.746;6.094;2023-01-13T05:11:09;6.80;99.90
12887;DHT22;6511;49.746;6.094;2023-01-13T05:13:54;6.80;99.90
12887;DHT22;6511;49.746;6.094;2023-01-13T05:16:38;6.80;99.90
12887;DHT22;6511;49.746;6.094;2023-01-13T05:19:22;6.70;99.90
12887;DHT22;6511;49.746;6.094;2023-01-13T05:21:47;6.70;99.90
12887;DHT22;6511;49.746;6.094;2023-01-13T05:24:33;6.70;99.90
12887;DHT22;6511;49.746;6.094;2023-01-13T05:27:17;6.70;99.90
12887;DHT22;6511;49.746;6.094;2023-01-13T05:29:43;6.70;99.90
12887;DHT22;6511;49.746;6.094;2023-01-13T05:32:08;6.60;99.90
12887;DHT22;6511;49.746;6.094;2023-01-13T05:34:34;6.60;99.90
12887;DHT22;6511;49.746;6.094;2023-01-13T05:37:00;6.60;99.90
12887;DHT22;6511;49.746;6.094;2023-01-13T05:39:28;6.60;99.90
12887;DHT22;6511;49.746;6.094;2023-01-13T05:42:38;6.70;99.90
12887;DHT22;6511;49.746;6.094;2023-01-13T05:45:23;6.70;99.90
12887;DHT22;6511;49.746;6.094;2023-01-13T05:47:49;6.70;99.90
12887;DHT22;6511;49.746;6.094;2023-01-13T05:50:15;6.70;99.90
12887;DHT22;6511;49.746;6.094;2023-01-13T05:52:41;6.70;99.90
12887;DHT22;6511;49.746;6.094;2023-01-13T05:55:09;6.80;99.90
12887;DHT22;6511;49.746;6.094;2023-01-13T05:57:34;6.70;99.90
12887;DHT22;6511;49.746;6.094;2023-01-13T06:00:00;6.70;99.90
12887;DHT22;6511;49.746;6.094;2023-01-13T06:02:26;6.70;99.90
12887;DHT22;6511;49.746;6.094;2023-01-13T06:04:51;6.70;99.90
12887;DHT22;6511;49.746;6.094;2023-01-13T06:07:17;6.70;99.90
12887;DHT22;6511;49.746;6.094;2023-01-13T06:09:43;6.70;99.90
12887;DHT22;6511;49.746;6.094;2023-01-13T06:12:12;6.70;99.90
12887;DHT22;6511;49.746;6.094;2023-01-13T06:14:38;6.80;99.90
12887;DHT22;6511;49.746;6.094;2023-01-13T06:17:14;6.90;99.90
12887;DHT22;6511;49.746;6.094;2023-01-13T06:19:40;6.80;99.90
12887;DHT22;6511;49.746;6.094;2023-01-13T06:22:18;6.80;99.90
12887;DHT22;6511;49.746;6.094;2023-01-13T06:24:47;6.80;99.90
12887;DHT22;6511;49.746;6.094;2023-01-13T06:27:13;6.80;99.90
12887;DHT22;6511;49.746;6.094;2023-01-13T06:29:40;6.90;99.90
12887;DHT22;6511;49.746;6.094;2023-01-13T06:32:10;6.90;99.90
12887;DHT22;6511;49.746;6.094;2023-01-13T06:34:37;7.00;99.90
12887;DHT22;6511;49.746;6.094;2023-01-13T06:37:05;7.10;99.90
12887;DHT22;6511;49.746;6.094;2023-01-13T06:39:31;7.00;99.90
12887;DHT22;6511;49.746;6.094;2023-01-13T06:41:57;7.10;99.90
12887;DHT22;6511;49.746;6.094;2023-01-13T06:44:43;7.10;99.90
12887;DHT22;6511;49.746;6.094;2023-01-13T06:47:09;7.10;99.90
12887;DHT22;6511;49.746;6.094;2023-01-13T06:49:35;7.10;99.90
12887;DHT22;6511;49.746;6.094;2023-01-13T06:52:00;7.10;99.90
12887;DHT22;6511;49.746;6.094;2023-01-13T06:54:26;7.20;99.90
12887;DHT22;6511;49.746;6.094;2023-01-13T06:56:52;7.20;99.90
12887;DHT22;6511;49.746;6.094;2023-01-13T06:59:17;7.30;99.90
12887;DHT22;6511;49.746;6.094;2023-01-13T07:01:43;7.20;99.90
12887;DHT22;6511;49.746;6.094;2023-01-13T07:04:09;7.30;99.90
12887;DHT22;6511;49.746;6.094;2023-01-13T07:06:34;7.30;99.90
12887;DHT22;6511;49.746;6.094;2023-01-13T07:09:00;7.30;99.90
12887;DHT22;6511;49.746;6.094;2023-01-13T07:11:25;7.30;99.90
12887;DHT22;6511;49.746;6.094;2023-01-13T07:13:51;7.20;99.90
12887;DHT22;6511;49.746;6.094;2023-01-13T07:16:35;7.10;99.90
12887;DHT22;6511;49.746;6.094;2023-01-13T07:19:01;7.00;99.90
12887;DHT22;6511;49.746;6.094;2023-01-13T07:21:26;7.00;99.90
12887;DHT22;6511;49.746;6.094;2023-01-13T07:23:52;6.90;99.90
12887;DHT22;6511;49.746;6.094;2023-01-13T07:26:17;6.80;99.90
12887;DHT22;6511;49.746;6.094;2023-01-13T07:28:43;6.80;99.90
12887;DHT22;6511;49.746;6.094;2023-01-13T07:31:17;6.80;99.90
12887;DHT22;6511;49.746;6.094;2023-01-13T07:33:44;6.80;99.90
12887;DHT22;6511;49.746;6.094;2023-01-13T07:36:10;6.80;99.90
12887;DHT22;6511;49.746;6.094;2023-01-13T07:38:36;6.80;99.90
12887;DHT22;6511;49.746;6.094;2023-01-13T07:41:04;6.60;99.90
12887;DHT22;6511;49.746;6.094;2023-01-13T07:43:49;6.60;99.90
12887;DHT22;6511;49.746;6.094;2023-01-13T07:46:16;6.50;99.90
12887;DHT22;6511;49.746;6.094;2023-01-13T07:48:42;6.50;99.90
12887;DHT22;6511;49.746;6.094;2023-01-13T07:51:10;6.50;99.90
12887;DHT22;6511;49.746;6.094;2023-01-13T07:53:37;6.50;99.90
12887;DHT22;6511;49.746;6.094;2023-01-13T07:56:05;6.50;99.90
12887;DHT22;6511;49.746;6.094;2023-01-13T07:58:32;6.70;99.90
12887;DHT22;6511;49.746;6.094;2023-01-13T08:00:58;6.70;99.90
12887;DHT22;6511;49.746;6.094;2023-01-13T08:03:25;6.80;99.90
12887;DHT22;6511;49.746;6.094;2023-01-13T08:05:51;6.80;99.90
12887;DHT22;6511;49.746;6.094;2023-01-13T08:08:17;6.90;99.90
12887;DHT22;6511;49.746;6.094;2023-01-13T08:10:43;7.00;99.90
12887;DHT22;6511;49.746;6.094;2023-01-13T08:13:16;7.00;99.90
12887;DHT22;6511;49.746;6.094;2023-01-13T08:15:44;7.10;99.90
12887;DHT22;6511;49.746;6.094;2023-01-13T08:18:10;7.00;99.90
12887;DHT22;6511;49.746;6.094;2023-01-13T08:20:36;7.00;99.90
12887;DHT22;6511;49.746;6.094;2023-01-13T08:23:02;7.00;99.90
12887;DHT22;6511;49.746;6.094;2023-01-13T08:25:28;7.00;99.90
12887;DHT22;6511;49.746;6.094;2023-01-13T08:27:54;7.00;99.90
12887;DHT22;6511;49.746;6.094;2023-01-13T08:30:20;7.10;99.90
12887;DHT22;6511;49.746;6.094;2023-01-13T08:32:47;7.10;99.90
12887;DHT22;6511;49.746;6.094;2023-01-13T08:35:14;7.10;99.90
12887;DHT22;6511;49.746;6.094;2023-01-13T08:37:40;7.20;99.90
12887;DHT22;6511;49.746;6.094;2023-01-13T08:40:06;7.30;99.90
12887;DHT22;6511;49.746;6.094;2023-01-13T08:42:32;7.30;99.90
12887;DHT22;6511;49.746;6.094;2023-01-13T08:44:58;7.30;99.90
12887;DHT22;6511;49.746;6.094;2023-01-13T08:47:25;7.30;99.90
12887;DHT22;6511;49.746;6.094;2023-01-13T08:49:51;7.40;99.90
12887;DHT22;6511;49.746;6.094;2023-01-13T08:52:16;7.50;99.90
12887;DHT22;6511;49.746;6.094;2023-01-13T08:54:42;7.60;99.90
12887;DHT22;6511;49.746;6.094;2023-01-13T08:57:08;7.60;99.90
12887;DHT22;6511;49.746;6.094;2023-01-13T08:59:34;7.60;99.90
12887;DHT22;6511;49.746;6.094;2023-01-13T09:02:00;7.60;99.90
12887;DHT22;6511;49.746;6.094;2023-01-13T09:04:27;7.60;99.90
12887;DHT22;6511;49.746;6.094;2023-01-13T09:06:53;7.50;99.90
12887;DHT22;6511;49.746;6.094;2023-01-13T09:09:20;7.50;99.90
12887;DHT22;6511;49.746;6.094;2023-01-13T09:11:48;7.50;99.90
12887;DHT22;6511;49.746;6.094;2023-01-13T09:14:35;7.40;99.90
12887;DHT22;6511;49.746;6.094;2023-01-13T09:17:01;7.30;99.90
12887;DHT22;6511;49.746;6.094;2023-01-13T09:19:28;7.30;99.90
12887;DHT22;6511;49.746;6.094;2023-01-13T09:21:54;7.40;99.90
12887;DHT22;6511;49.746;6.094;2023-01-13T09:24:21;7.40;99.90
12887;DHT22;6511;49.746;6.094;2023-01-13T09:26:46;7.50;99.90
12887;DHT22;6511;49.746;6.094;2023-01-13T09:29:13;7.60;99.90
12887;DHT22;6511;49.746;6.094;2023-01-13T09:31:38;7.60;99.90
12887;DHT22;6511;49.746;6.094;2023-01-13T09:34:05;7.70;99.90
12887;DHT22;6511;49.746;6.094;2023-01-13T09:36:49;7.70;99.90
12887;DHT22;6511;49.746;6.094;2023-01-13T09:39:15;7.80;99.90
12887;DHT22;6511;49.746;6.094;2023-01-13T09:41:43;7.70;99.90
12887;DHT22;6511;49.746;6.094;2023-01-13T09:44:44;7.80;99.90
12887;DHT22;6511;49.746;6.094;2023-01-13T09:47:36;7.80;99.90
12887;DHT22;6511;49.746;6.094;2023-01-13T09:53:12;7.80;99.90
12887;DHT22;6511;49.746;6.094;2023-01-13T09:55:38;7.80;99.90
12887;DHT22;6511;49.746;6.094;2023-01-13T09:58:16;7.70;99.90
12887;DHT22;6511;49.746;6.094;2023-01-13T10:00:58;7.60;99.90
12887;DHT22;6511;49.746;6.094;2023-01-13T10:03:28;7.60;99.90
12887;DHT22;6511;49.746;6.094;2023-01-13T10:06:34;7.60;99.90
12887;DHT22;6511;49.746;6.094;2023-01-13T10:09:01;7.70;99.90
12887;DHT22;6511;49.746;6.094;2023-01-13T10:11:32;7.80;99.90
12887;DHT22;6511;49.746;6.094;2023-01-13T10:14:52;8.00;99.90
12887;DHT22;6511;49.746;6.094;2023-01-13T10:17:33;8.10;99.90
12887;DHT22;6511;49.746;6.094;2023-01-13T10:20:17;8.10;99.90
12887;DHT22;6511;49.746;6.094;2023-01-13T10:22:51;8.10;99.90
12887;DHT22;6511;49.746;6.094;2023-01-13T10:25:45;8.20;99.90
12887;DHT22;6511;49.746;6.094;2023-01-13T10:28:14;8.30;99.90
12887;DHT22;6511;49.746;6.094;2023-01-13T10:30:43;8.20;99.90
12887;DHT22;6511;49.746;6.094;2023-01-13T10:33:23;8.20;99.90
12887;DHT22;6511;49.746;6.094;2023-01-13T10:41:01;8.30;99.90
12887;DHT22;6511;49.746;6.094;2023-01-13T10:43:28;8.40;99.90
12887;DHT22;6511;49.746;6.094;2023-01-13T10:46:20;8.60;99.90
12887;DHT22;6511;49.746;6.094;2023-01-13T10:48:52;8.60;99.90
12887;DHT22;6511;49.746;6.094;2023-01-13T10:51:41;8.50;99.90
12887;DHT22;6511;49.746;6.094;2023-01-13T10:56:38;8.20;99.90
12887;DHT22;6511;49.746;6.094;2023-01-13T10:59:23;8.20;99.90
12887;DHT22;6511;49.746;6.094;2023-01-13T11:04:32;8.20;99.90
12887;DHT22;6511;49.746;6.094;2023-01-13T11:06:59;8.30;99.90
12887;DHT22;6511;49.746;6.094;2023-01-13T11:09:26;8.40;99.90
12887;DHT22;6511;49.746;6.094;2023-01-13T11:11:52;8.40;99.90
12887;DHT22;6511;49.746;6.094;2023-01-13T11:19:57;8.40;99.90
12887;DHT22;6511;49.746;6.094;2023-01-13T11:22:28;8.30;99.90
12887;DHT22;6511;49.746;6.094;2023-01-13T11:24:57;8.30;99.90
12887;DHT22;6511;49.746;6.094;2023-01-13T11:27:45;8.30;99.90
12887;DHT22;6511;49.746;6.094;2023-01-13T11:30:26;8.40;99.90
12887;DHT22;6511;49.746;6.094;2023-01-13T11:35:47;8.50;99.90
12887;DHT22;6511;49.746;6.094;2023-01-13T11:38:36;8.60;99.90
12887;DHT22;6511;49.746;6.094;2023-01-13T11:46:26;8.60;99.90
12887;DHT22;6511;49.746;6.094;2023-01-13T11:48:53;8.70;99.90
12887;DHT22;6511;49.746;6.094;2023-01-13T12:02:47;8.70;99.90
12887;DHT22;6511;49.746;6.094;2023-01-13T12:05:21;8.60;99.90
12887;DHT22;6511;49.746;6.094;2023-01-13T12:08:00;8.50;99.90
12887;DHT22;6511;49.746;6.094;2023-01-13T12:16:28;8.40;99.90
12887;DHT22;6511;49.746;6.094;2023-01-13T12:30:01;7.20;99.90
12887;DHT22;6511;49.746;6.094;2023-01-13T12:32:34;6.90;99.90
12887;DHT22;6511;49.746;6.094;2023-01-13T12:35:22;6.80;99.90
12887;DHT22;6511;49.746;6.094;2023-01-13T12:38:03;6.70;99.90
12887;DHT22;6511;49.746;6.094;2023-01-13T12:41:05;6.60;99.90
12887;DHT22;6511;49.746;6.094;2023-01-13T12:43:36;6.70;99.90
12887;DHT22;6511;49.746;6.094;2023-01-13T12:51:25;6.40;99.90
12887;DHT22;6511;49.746;6.094;2023-01-13T12:53:52;6.40;99.90
12887;DHT22;6511;49.746;6.094;2023-01-13T12:58:46;6.40;99.90
12887;DHT22;6511;49.746;6.094;2023-01-13T13:01:13;6.40;99.90
12887;DHT22;6511;49.746;6.094;2023-01-13T13:03:39;6.60;99.90
12887;DHT22;6511;49.746;6.094;2023-01-13T13:06:09;6.70;99.90
12887;DHT22;6511;49.746;6.094;2023-01-13T13:08:51;6.80;99.90
12887;DHT22;6511;49.746;6.094;2023-01-13T13:19:46;7.10;99.90
12887;DHT22;6511;49.746;6.094;2023-01-13T13:30:10;7.40;99.90
12887;DHT22;6511;49.746;6.094;2023-01-13T13:40:47;7.40;99.90
12887;DHT22;6511;49.746;6.094;2023-01-13T13:43:40;7.30;99.90
12887;DHT22;6511;49.746;6.094;2023-01-13T13:49:10;6.90;99.90
12887;DHT22;6511;49.746;6.094;2023-01-13T13:51:40;6.80;99.90
12887;DHT22;6511;49.746;6.094;2023-01-13T13:54:15;6.60;99.90
12887;DHT22;6511;49.746;6.094;2023-01-13T13:56:43;6.50;99.90
12887;DHT22;6511;49.746;6.094;2023-01-13T13:59:11;6.50;99.90
12887;DHT22;6511;49.746;6.094;2023-01-13T14:01:40;6.40;99.90
12887;DHT22;6511;49.746;6.094;2023-01-13T14:04:19;6.30;99.90
12887;DHT22;6511;49.746;6.094;2023-01-13T14:07:19;6.20;99.90
12887;DHT22;6511;49.746;6.094;2023-01-13T14:09:51;6.10;99.90
12887;DHT22;6511;49.746;6.094;2023-01-13T14:12:22;6.00;99.90
12887;DHT22;6511;49.746;6.094;2023-01-13T14:14:48;6.00;99.90
12887;DHT22;6511;49.746;6.094;2023-01-13T14:17:27;6.00;99.90
12887;DHT22;6511;49.746;6.094;2023-01-13T14:20:00;6.00;99.90
12887;DHT22;6511;49.746;6.094;2023-01-13T14:22:27;6.00;99.90
12887;DHT22;6511;49.746;6.094;2023-01-13T14:24:53;5.90;99.90
12887;DHT22;6511;49.746;6.094;2023-01-13T14:27:24;5.90;99.90
12887;DHT22;6511;49.746;6.094;2023-01-13T14:29:56;6.00;99.90
12887;DHT22;6511;49.746;6.094;2023-01-13T14:32:32;6.10;99.90
12887;DHT22;6511;49.746;6.094;2023-01-13T14:34:59;6.10;99.90
12887;DHT22;6511;49.746;6.094;2023-01-13T14:39:53;6.20;99.90
12887;DHT22;6511;49.746;6.094;2023-01-13T14:42:18;6.30;99.90
12887;DHT22;6511;49.746;6.094;2023-01-13T14:44:49;6.40;99.90
12887;DHT22;6511;49.746;6.094;2023-01-13T14:47:27;6.50;99.90
12887;DHT22;6511;49.746;6.094;2023-01-13T14:49:59;6.60;99.90
12887;DHT22;6511;49.746;6.094;2023-01-13T14:52:30;6.60;99.90
12887;DHT22;6511;49.746;6.094;2023-01-13T14:57:37;6.60;99.90
12887;DHT22;6511;49.746;6.094;2023-01-13T15:10:18;6.60;99.90
12887;DHT22;6511;49.746;6.094;2023-01-13T15:12:45;6.60;99.90
12887;DHT22;6511;49.746;6.094;2023-01-13T15:17:45;6.60;99.90
12887;DHT22;6511;49.746;6.094;2023-01-13T15:20:20;6.60;99.90
12887;DHT22;6511;49.746;6.094;2023-01-13T15:22:47;6.70;99.90
12887;DHT22;6511;49.746;6.094;2023-01-13T15:25:13;6.60;99.90
12887;DHT22;6511;49.746;6.094;2023-01-13T15:27:39;6.50;99.90
12887;DHT22;6511;49.746;6.094;2023-01-13T15:30:13;6.50;99.90
12887;DHT22;6511;49.746;6.094;2023-01-13T15:32:39;6.50;99.90
12887;DHT22;6511;49.746;6.094;2023-01-13T15:35:05;6.40;99.90
12887;DHT22;6511;49.746;6.094;2023-01-13T15:37:31;6.50;99.90
12887;DHT22;6511;49.746;6.094;2023-01-13T15:39:57;6.40;99.90
12887;DHT22;6511;49.746;6.094;2023-01-13T15:42:22;6.30;99.90
12887;DHT22;6511;49.746;6.094;2023-01-13T15:45:11;6.50;99.90
12887;DHT22;6511;49.746;6.094;2023-01-13T15:47:56;6.40;99.90
12887;DHT22;6511;49.746;6.094;2023-01-13T15:50:22;6.40;99.90
12887;DHT22;6511;49.746;6.094;2023-01-13T15:52:48;6.40;99.90
12887;DHT22;6511;49.746;6.094;2023-01-13T15:55:14;6.30;99.90
12887;DHT22;6511;49.746;6.094;2023-01-13T15:57:47;6.30;99.90
12887;DHT22;6511;49.746;6.094;2023-01-13T16:00:19;6.30;99.90
12887;DHT22;6511;49.746;6.094;2023-01-13T16:02:46;6.30;99.90
12887;DHT22;6511;49.746;6.094;2023-01-13T16:05:12;6.30;99.90
12887;DHT22;6511;49.746;6.094;2023-01-13T16:07:38;6.30;99.90
12887;DHT22;6511;49.746;6.094;2023-01-13T16:10:05;6.20;99.90
12887;DHT22;6511;49.746;6.094;2023-01-13T16:12:32;6.20;99.90
12887;DHT22;6511;49.746;6.094;2023-01-13T16:14:58;6.10;99.90
12887;DHT22;6511;49.746;6.094;2023-01-13T16:17:25;6.10;99.90
12887;DHT22;6511;49.746;6.094;2023-01-13T16:19:54;6.00;99.90
12887;DHT22;6511;49.746;6.094;2023-01-13T16:22:20;6.10;99.90
12887;DHT22;6511;49.746;6.094;2023-01-13T16:24:46;5.90;99.90
12887;DHT22;6511;49.746;6.094;2023-01-13T16:27:21;5.90;99.90
12887;DHT22;6511;49.746;6.094;2023-01-13T16:29:48;5.90;99.90
12887;DHT22;6511;49.746;6.094;2023-01-13T16:32:15;5.80;99.90
12887;DHT22;6511;49.746;6.094;2023-01-13T16:34:41;5.90;99.90
12887;DHT22;6511;49.746;6.094;2023-01-13T16:37:24;5.80;99.90
12887;DHT22;6511;49.746;6.094;2023-01-13T16:39:50;5.80;99.90
12887;DHT22;6511;49.746;6.094;2023-01-13T16:42:16;5.90;99.90
12887;DHT22;6511;49.746;6.094;2023-01-13T16:44:42;5.90;99.90
12887;DHT22;6511;49.746;6.094;2023-01-13T16:47:17;6.00;99.90
12887;DHT22;6511;49.746;6.094;2023-01-13T16:49:44;6.00;99.90
12887;DHT22;6511;49.746;6.094;2023-01-13T16:52:10;5.90;99.90
12887;DHT22;6511;49.746;6.094;2023-01-13T16:54:35;5.90;99.90
12887;DHT22;6511;49.746;6.094;2023-01-13T16:57:04;5.90;99.90
12887;DHT22;6511;49.746;6.094;2023-01-13T16:59:31;6.00;99.90
12887;DHT22;6511;49.746;6.094;2023-01-13T17:01:57;6.00;99.90
12887;DHT22;6511;49.746;6.094;2023-01-13T17:04:23;5.80;99.90
12887;DHT22;6511;49.746;6.094;2023-01-13T17:07:04;5.80;99.90
12887;DHT22;6511;49.746;6.094;2023-01-13T17:09:30;5.80;99.90
12887;DHT22;6511;49.746;6.094;2023-01-13T17:11:57;5.90;99.90
12887;DHT22;6511;49.746;6.094;2023-01-13T17:14:23;5.90;99.90
12887;DHT22;6511;49.746;6.094;2023-01-13T17:16:51;5.90;99.90
12887;DHT22;6511;49.746;6.094;2023-01-13T17:19:17;5.90;99.90
12887;DHT22;6511;49.746;6.094;2023-01-13T17:21:42;5.90;99.90
12887;DHT22;6511;49.746;6.094;2023-01-13T17:24:08;5.80;99.90
12887;DHT22;6511;49.746;6.094;2023-01-13T17:26:48;5.80;99.90
12887;DHT22;6511;49.746;6.094;2023-01-13T17:29:20;5.80;99.90
12887;DHT22;6511;49.746;6.094;2023-01-13T17:31:47;5.80;99.90
12887;DHT22;6511;49.746;6.094;2023-01-13T17:34:13;5.90;99.90
12887;DHT22;6511;49.746;6.094;2023-01-13T17:36:40;5.90;99.90
12887;DHT22;6511;49.746;6.094;2023-01-13T17:39:16;5.80;99.90
12887;DHT22;6511;49.746;6.094;2023-01-13T17:41:41;5.70;99.90
12887;DHT22;6511;49.746;6.094;2023-01-13T17:44:10;5.70;99.90
12887;DHT22;6511;49.746;6.094;2023-01-13T17:46:37;5.60;99.90
12887;DHT22;6511;49.746;6.094;2023-01-13T17:49:03;5.60;99.90
12887;DHT22;6511;49.746;6.094;2023-01-13T17:51:29;5.70;99.90
12887;DHT22;6511;49.746;6.094;2023-01-13T17:53:55;5.80;99.90
12887;DHT22;6511;49.746;6.094;2023-01-13T17:56:21;5.70;99.90
12887;DHT22;6511;49.746;6.094;2023-01-13T17:58:47;5.80;99.90
12887;DHT22;6511;49.746;6.094;2023-01-13T18:01:15;5.80;99.90
12887;DHT22;6511;49.746;6.094;2023-01-13T18:03:42;5.90;99.90
12887;DHT22;6511;49.746;6.094;2023-01-13T18:06:13;5.90;99.90
12887;DHT22;6511;49.746;6.094;2023-01-13T18:08:39;6.00;99.90
12887;DHT22;6511;49.746;6.094;2023-01-13T18:11:06;6.00;99.90
12887;DHT22;6511;49.746;6.094;2023-01-13T18:13:36;6.00;99.90
12887;DHT22;6511;49.746;6.094;2023-01-13T18:16:05;6.10;99.90
12887;DHT22;6511;49.746;6.094;2023-01-13T18:18:43;6.10;99.90
12887;DHT22;6511;49.746;6.094;2023-01-13T18:21:23;6.20;99.90
12887;DHT22;6511;49.746;6.094;2023-01-13T18:24:12;6.20;99.90
12887;DHT22;6511;49.746;6.094;2023-01-13T18:26:57;6.20;99.90
12887;DHT22;6511;49.746;6.094;2023-01-13T18:29:41;6.30;99.90
12887;DHT22;6511;49.746;6.094;2023-01-13T18:32:07;6.30;99.90
12887;DHT22;6511;49.746;6.094;2023-01-13T18:34:34;6.30;99.90
12887;DHT22;6511;49.746;6.094;2023-01-13T18:37:00;6.30;99.90
12887;DHT22;6511;49.746;6.094;2023-01-13T18:39:25;6.40;99.90
12887;DHT22;6511;49.746;6.094;2023-01-13T18:41:52;6.40;99.90
12887;DHT22;6511;49.746;6.094;2023-01-13T18:44:38;6.40;99.90
12887;DHT22;6511;49.746;6.094;2023-01-13T18:47:04;6.40;99.90
12887;DHT22;6511;49.746;6.094;2023-01-13T18:49:29;6.40;99.90